ePrivacy and GPDR Cookie Consent by Cookie Consent
EmailTwitter


Observations de surface / Québec / CYMX

Régions: Québec | Canada | États-Unis | Europe | France | UK | Ailleurs
Station
Affichage
Infos & localisation pour CYMX | Aide pour décoder les METARs

Observations prises le 2022-12-03 à 20H00 UTC à MONTREAL MIRABEL, QB (CYMX)

Etat du ciel: couvert.

Obstacle(s) à la visibilité: faibles averses de pluie et brume.

Température: 6.0 Celsius

Point de rosée: 6.0 Celsius

Humidité relative: 100%

Facteur vent 3.

Vents: Sud-sud-est à 13 km/h ou 7 noeuds.

Pression au niveau moyen de la mer: 100.06 kilopascals.

Calage altimétrique: 100.00 kilopascals ou 29.53 pouces de mercure.

Visibilité horizontale: 4.00 milles terrestres ou 6.40 kilomètres.

Hauteur du plafond: 762 mètres ( 2500 pieds ).

Observation METAR:

CYMX 032000Z 16007KT 4SM -SHRA BR SCT015 OVC025 06/06 A2953 RMK CF3SC5 CVCTV

CLD EMBD SLP006=